createdAt,value
2018-11-07T00:01:18.781Z,84.45
2018-11-07T00:03:56.290Z,84.56
2018-11-07T00:06:33.882Z,84.64
2018-11-07T00:09:14.112Z,84.60
2018-11-07T00:11:52.689Z,84.50
2018-11-07T00:14:33.637Z,84.35
2018-11-07T00:17:11.283Z,84.73
2018-11-07T00:19:49.054Z,84.71
2018-11-07T00:22:21.907Z,84.40
2018-11-07T00:24:56.454Z,84.84
2018-11-07T00:27:31.035Z,84.56
2018-11-07T00:30:04.507Z,84.90
2018-11-07T00:32:39.237Z,84.46
2018-11-07T00:35:15.484Z,84.70
2018-11-07T00:37:51.655Z,84.69
2018-11-07T00:40:28.070Z,84.56
2018-11-07T00:43:06.374Z,84.54
2018-11-07T00:45:42.494Z,84.73
2018-11-07T00:48:20.749Z,84.55
2018-11-07T00:50:58.377Z,84.55
2018-11-07T00:53:35.412Z,84.22
2018-11-07T00:56:12.405Z,84.84
2018-11-07T00:58:50.146Z,84.63
2018-11-07T01:01:26.816Z,84.53
2018-11-07T01:04:04.702Z,84.89
2018-11-07T01:06:41.358Z,84.79
2018-11-07T01:09:19.113Z,84.47
2018-11-07T01:11:58.139Z,84.92
2018-11-07T01:14:34.832Z,84.48
2018-11-07T01:17:12.640Z,84.62
2018-11-07T01:19:49.198Z,84.99
2018-11-07T01:22:28.929Z,84.58
2018-11-07T01:25:06.177Z,85.09
2018-11-07T01:27:35.790Z,84.54
2018-11-07T01:30:09.494Z,84.38
2018-11-07T01:32:39.075Z,84.90
2018-11-07T01:35:09.761Z,84.35
2018-11-07T01:37:39.209Z,84.61
2018-11-07T01:40:12.087Z,84.90
2018-11-07T01:42:42.323Z,84.47
2018-11-07T01:45:13.616Z,84.40
2018-11-07T01:47:43.284Z,84.92
2018-11-07T01:50:13.726Z,84.75
2018-11-07T01:52:43.211Z,84.60
2018-11-07T01:55:12.664Z,84.46
2018-11-07T01:57:42.145Z,84.53
2018-11-07T02:00:12.726Z,84.65
2018-11-07T02:02:43.447Z,84.38
2018-11-07T02:05:13.552Z,84.72
2018-11-07T02:07:43.440Z,84.21
2018-11-07T02:10:12.909Z,84.66
2018-11-07T02:12:42.612Z,84.38
2018-11-07T02:15:12.143Z,84.21
2018-11-07T02:17:41.580Z,84.14
2018-11-07T02:20:12.197Z,84.30
2018-11-07T02:22:42.283Z,84.30
2018-11-07T02:25:11.732Z,84.68
2018-11-07T02:27:41.719Z,84.39
2018-11-07T02:30:15.149Z,84.17
2018-11-07T02:32:45.027Z,84.58
2018-11-07T02:35:14.487Z,84.46
2018-11-07T02:37:43.882Z,84.17
2018-11-07T02:40:13.314Z,84.74
2018-11-07T02:42:44.328Z,84.72
2018-11-07T02:45:13.730Z,84.44
2018-11-07T02:47:43.130Z,84.47
2018-11-07T02:50:12.778Z,84.58
2018-11-07T02:52:42.449Z,84.67
2018-11-07T02:55:12.107Z,84.75
2018-11-07T02:57:41.550Z,84.41
2018-11-07T03:00:12.857Z,84.88
2018-11-07T03:02:42.278Z,84.87
2018-11-07T03:05:11.707Z,84.82
2018-11-07T03:07:50.082Z,84.38
2018-11-07T03:10:19.562Z,84.60
2018-11-07T03:12:48.934Z,84.48
2018-11-07T03:15:18.391Z,84.42
2018-11-07T03:17:47.874Z,84.51
2018-11-07T03:20:17.513Z,84.45
2018-11-07T03:22:46.890Z,84.65
2018-11-07T03:25:16.231Z,84.52
2018-11-07T03:27:45.631Z,84.47
2018-11-07T03:30:15.072Z,84.29
2018-11-07T03:32:47.543Z,84.72
2018-11-07T03:35:23.300Z,84.54
2018-11-07T03:37:52.698Z,84.39
2018-11-07T03:40:22.103Z,84.58
2018-11-07T03:42:51.482Z,84.51
2018-11-07T03:45:25.802Z,84.39
2018-11-07T03:47:55.316Z,84.42
2018-11-07T03:50:25.031Z,84.59
2018-11-07T03:52:54.683Z,84.45
2018-11-07T03:55:24.053Z,84.66
2018-11-07T03:57:53.737Z,84.31
2018-11-07T04:00:23.341Z,84.55
2018-11-07T04:02:52.799Z,84.28
2018-11-07T04:05:22.460Z,84.66
2018-11-07T04:07:51.857Z,84.61
2018-11-07T04:10:21.283Z,84.39
2018-11-07T04:12:50.939Z,84.73
2018-11-07T04:15:20.298Z,84.53
2018-11-07T04:17:49.635Z,84.23
2018-11-07T04:20:19.108Z,84.25
2018-11-07T04:22:49.076Z,84.49
2018-11-07T04:25:18.514Z,84.24
2018-11-07T04:27:47.954Z,84.11
2018-11-07T04:30:17.437Z,83.95
2018-11-07T04:32:46.869Z,84.45
2018-11-07T04:35:16.258Z,84.45
2018-11-07T04:37:45.668Z,84.29
2018-11-07T04:40:15.142Z,84.00
2018-11-07T04:42:49.330Z,84.35
2018-11-07T04:45:19.062Z,84.27
2018-11-07T04:47:48.677Z,84.25
2018-11-07T04:50:18.083Z,83.97
2018-11-07T04:52:47.563Z,84.31
2018-11-07T04:55:17.063Z,84.20
2018-11-07T04:57:46.506Z,84.40
2018-11-07T05:00:15.996Z,84.08
2018-11-07T05:02:45.383Z,84.34
2018-11-07T05:05:14.760Z,84.50
2018-11-07T05:07:44.344Z,84.65
2018-11-07T05:10:14.761Z,84.57
2018-11-07T05:12:45.088Z,84.54
2018-11-07T05:15:14.815Z,84.28
2018-11-07T05:17:44.570Z,84.43
2018-11-07T05:20:14.023Z,83.88
2018-11-07T05:22:43.748Z,84.14
2018-11-07T05:25:13.402Z,84.42
2018-11-07T05:27:43.695Z,84.17
2018-11-07T05:30:13.556Z,84.11
2018-11-07T05:32:42.995Z,83.89
2018-11-07T05:35:12.464Z,84.24
2018-11-07T05:37:42.676Z,83.50
2018-11-07T05:40:12.135Z,83.95
2018-11-07T05:42:41.695Z,84.13
2018-11-07T05:45:11.106Z,83.80
2018-11-07T05:47:41.027Z,84.04
2018-11-07T05:50:11.354Z,84.03
2018-11-07T05:52:41.134Z,84.00
2018-11-07T05:55:11.017Z,83.79
2018-11-07T05:57:40.760Z,84.05
2018-11-07T06:00:11.779Z,83.91
2018-11-07T06:02:41.610Z,84.21
2018-11-07T06:05:12.109Z,84.04
2018-11-07T06:07:42.830Z,84.26
2018-11-07T06:10:13.537Z,84.51
2018-11-07T06:12:43.226Z,84.36
2018-11-07T06:15:12.843Z,84.33
2018-11-07T06:17:42.286Z,84.35
2018-11-07T06:20:12.140Z,84.37
2018-11-07T06:22:41.540Z,84.22
2018-11-07T06:25:11.675Z,84.37
2018-11-07T06:27:41.776Z,84.61
2018-11-07T06:30:12.696Z,84.83
2018-11-07T06:32:42.444Z,84.85
2018-11-07T06:35:12.182Z,84.37
2018-11-07T06:37:41.836Z,84.45
2018-11-07T06:40:12.238Z,84.48
2018-11-07T06:42:41.706Z,84.36
2018-11-07T06:45:11.791Z,84.08
2018-11-07T06:47:41.203Z,84.04
2018-11-07T06:50:14.330Z,84.09
2018-11-07T06:52:44.461Z,84.23
2018-11-07T06:55:13.915Z,84.34
2018-11-07T06:57:43.298Z,84.53
2018-11-07T07:00:15.734Z,84.68
2018-11-07T07:02:46.233Z,84.74
2018-11-07T07:05:15.816Z,84.75
2018-11-07T07:07:45.482Z,84.73
2018-11-07T07:10:16.316Z,84.58
2018-11-07T07:12:45.812Z,84.22
2018-11-07T07:15:16.138Z,84.53
2018-11-07T07:17:45.731Z,84.50
2018-11-07T07:20:17.332Z,84.68
2018-11-07T07:22:47.522Z,84.36
2018-11-07T07:25:17.090Z,84.22
2018-11-07T07:27:47.439Z,84.75
2018-11-07T07:30:19.227Z,84.44
2018-11-07T07:32:49.064Z,84.10
2018-11-07T07:35:18.575Z,84.37
2018-11-07T07:37:48.262Z,84.56
2018-11-07T07:40:17.980Z,84.70
2018-11-07T07:42:47.732Z,84.31
2018-11-07T07:45:18.275Z,84.67
2018-11-07T07:47:47.890Z,84.61
2018-11-07T07:50:19.161Z,84.40
2018-11-07T07:52:52.379Z,84.75
2018-11-07T07:55:21.785Z,84.51
2018-11-07T07:57:51.281Z,84.40
2018-11-07T08:00:21.660Z,84.77
2018-11-07T08:02:52.516Z,84.57
2018-11-07T08:05:22.053Z,84.81
2018-11-07T08:07:52.382Z,84.34
2018-11-07T08:10:22.714Z,84.68
2018-11-07T08:12:53.322Z,84.74
2018-11-07T08:15:22.786Z,84.72
2018-11-07T08:17:52.290Z,84.53
2018-11-07T08:20:21.704Z,84.74
2018-11-07T08:22:51.134Z,84.29
2018-11-07T08:25:20.571Z,84.48
2018-11-07T08:27:49.981Z,84.33
2018-11-07T08:30:20.842Z,83.85
2018-11-07T08:32:50.559Z,84.23
2018-11-07T08:35:20.016Z,84.02
2018-11-07T08:37:49.719Z,84.32
2018-11-07T08:40:21.719Z,83.61
2018-11-07T08:42:51.283Z,83.98
2018-11-07T08:45:20.710Z,83.87
2018-11-07T08:47:50.455Z,83.97
2018-11-07T08:50:21.070Z,83.48
2018-11-07T08:52:50.784Z,83.90
2018-11-07T08:55:21.525Z,83.53
2018-11-07T08:57:52.175Z,83.59
2018-11-07T09:00:23.906Z,83.66
2018-11-07T09:02:54.303Z,83.50
2018-11-07T09:05:24.081Z,83.54
2018-11-07T09:07:53.525Z,83.36
2018-11-07T09:10:23.900Z,83.51
2018-11-07T09:12:53.284Z,83.49
2018-11-07T09:15:24.234Z,83.08
2018-11-07T09:17:53.701Z,83.10
2018-11-07T09:20:24.111Z,82.78
2018-11-07T09:22:54.143Z,82.56
2018-11-07T09:25:23.602Z,82.81
2018-11-07T09:27:52.983Z,82.30
2018-11-07T09:30:23.634Z,82.21
2018-11-07T09:32:53.097Z,82.35
2018-11-07T09:35:22.880Z,82.01
2018-11-07T09:37:52.398Z,82.55
2018-11-07T09:40:22.284Z,82.39
2018-11-07T09:42:51.803Z,81.64
2018-11-07T09:45:22.382Z,81.49
2018-11-07T09:47:52.526Z,81.90
2018-11-07T09:50:21.939Z,82.09
2018-11-07T09:52:51.380Z,81.51
2018-11-07T09:55:21.644Z,81.67
2018-11-07T09:57:51.024Z,81.41
2018-11-07T10:00:21.820Z,80.66
2018-11-07T10:02:51.560Z,81.10
2018-11-07T10:05:21.720Z,80.77
2018-11-07T10:07:51.272Z,80.77
2018-11-07T10:10:21.967Z,80.99
2018-11-07T10:12:51.593Z,80.85
2018-11-07T10:15:21.492Z,80.26
2018-11-07T10:17:50.911Z,80.45
2018-11-07T10:20:21.853Z,80.07
2018-11-07T10:22:51.509Z,79.84
2018-11-07T10:25:21.765Z,79.95
2018-11-07T10:27:51.917Z,79.40
2018-11-07T10:30:21.693Z,79.58
2018-11-07T10:32:51.523Z,78.80
2018-11-07T10:35:21.080Z,78.41
2018-11-07T10:37:50.661Z,78.54
2018-11-07T10:40:22.604Z,78.18
2018-11-07T10:42:52.044Z,77.04
2018-11-07T10:45:21.791Z,77.22
2018-11-07T10:47:52.678Z,77.21
2018-11-07T10:50:22.545Z,76.81
2018-11-07T10:52:52.257Z,76.24
2018-11-07T10:55:21.662Z,76.60
2018-11-07T10:57:51.645Z,76.34
2018-11-07T11:00:26.351Z,75.84
2018-11-07T11:03:13.906Z,76.27
2018-11-07T11:05:43.343Z,75.86
2018-11-07T11:08:12.916Z,75.97
2018-11-07T11:10:42.362Z,75.54
2018-11-07T11:13:12.112Z,75.11
2018-11-07T11:15:41.616Z,75.07
2018-11-07T11:18:11.180Z,74.39
2018-11-07T11:20:40.788Z,73.93
2018-11-07T11:23:10.186Z,73.53
2018-11-07T11:25:39.680Z,73.90
2018-11-07T11:28:09.507Z,72.99
2018-11-07T11:30:39.304Z,72.59
2018-11-07T11:33:09.258Z,72.44
2018-11-07T11:35:39.286Z,72.01
2018-11-07T11:38:08.776Z,71.83
2018-11-07T11:40:38.302Z,71.56
2018-11-07T11:43:07.833Z,71.05
2018-11-07T11:45:37.680Z,70.71
2018-11-07T11:48:08.195Z,69.76
2018-11-07T11:50:37.692Z,69.96
2018-11-07T11:53:07.375Z,69.12
2018-11-07T11:55:36.879Z,69.31
2018-11-07T11:58:07.205Z,69.42
2018-11-07T12:00:38.316Z,68.94
2018-11-07T12:03:10.506Z,68.90
2018-11-07T12:05:40.054Z,67.56
2018-11-07T12:08:10.083Z,67.23
2018-11-07T12:10:39.691Z,67.98
2018-11-07T12:13:09.180Z,67.23
2018-11-07T12:15:38.585Z,67.06
2018-11-07T12:18:08.073Z,66.80
2018-11-07T12:20:37.671Z,67.45
2018-11-07T12:23:07.104Z,67.19
2018-11-07T12:25:39.187Z,67.06
2018-11-07T12:28:09.535Z,66.69
2018-11-07T12:30:39.017Z,66.41
2018-11-07T12:33:08.627Z,66.50
2018-11-07T12:35:38.038Z,65.96
2018-11-07T12:38:07.466Z,65.16
2018-11-07T12:40:38.926Z,65.00
2018-11-07T12:43:08.843Z,64.65
2018-11-07T12:45:38.505Z,63.34
2018-11-07T12:48:08.503Z,61.56
2018-11-07T12:50:37.918Z,60.18
2018-11-07T12:53:07.334Z,58.87
2018-11-07T12:55:40.757Z,57.00
2018-11-07T12:58:10.331Z,55.71
2018-11-07T13:00:39.610Z,54.85
2018-11-07T13:03:09.068Z,54.27
2018-11-07T13:05:38.977Z,52.92
2018-11-07T13:08:08.498Z,53.07
2018-11-07T13:10:38.477Z,53.51
2018-11-07T13:13:08.175Z,54.41
2018-11-07T13:15:37.775Z,55.66
2018-11-07T13:18:07.597Z,55.87
2018-11-07T13:20:37.139Z,56.74
2018-11-07T13:23:06.833Z,56.74
2018-11-07T13:25:37.175Z,57.01
2018-11-07T13:28:06.800Z,58.16
2018-11-07T13:30:36.887Z,58.38
2018-11-07T13:33:06.735Z,58.84
2018-11-07T13:35:36.184Z,59.10
2018-11-07T13:38:06.742Z,59.36
2018-11-07T13:40:35.937Z,59.92
2018-11-07T13:43:07.521Z,60.07
2018-11-07T13:45:36.991Z,60.28
2018-11-07T13:48:06.631Z,59.43
2018-11-07T13:50:39.817Z,60.16
2018-11-07T13:53:09.455Z,59.84
2018-11-07T13:55:38.825Z,59.77
2018-11-07T13:58:08.276Z,60.05
2018-11-07T14:00:37.863Z,60.88
2018-11-07T14:03:07.495Z,60.29
2018-11-07T14:05:37.103Z,61.27
2018-11-07T14:08:06.642Z,61.08
2018-11-07T14:10:36.098Z,61.67
2018-11-07T14:13:07.838Z,62.14
2018-11-07T14:15:39.100Z,62.40
2018-11-07T14:18:08.640Z,62.10
2018-11-07T14:20:38.112Z,62.67
2018-11-07T14:23:07.640Z,63.08
2018-11-07T14:25:37.056Z,63.31
2018-11-07T14:28:07.725Z,62.85
2018-11-07T14:30:37.015Z,62.83
2018-11-07T14:33:06.654Z,63.26
2018-11-07T14:35:36.260Z,63.47
2018-11-07T14:38:06.318Z,64.18
2018-11-07T14:40:35.888Z,63.97
2018-11-07T14:43:06.768Z,63.84
2018-11-07T14:45:36.258Z,64.07
2018-11-07T14:48:06.051Z,63.77
2018-11-07T14:50:35.559Z,63.96
2018-11-07T14:53:05.055Z,63.67
2018-11-07T14:55:34.531Z,63.87
2018-11-07T14:58:04.040Z,63.54
2018-11-07T15:00:33.433Z,63.39
2018-11-07T15:03:02.870Z,63.54
2018-11-07T15:05:32.455Z,63.77
2018-11-07T15:08:01.855Z,63.00
2018-11-07T15:10:31.405Z,63.14
2018-11-07T15:13:00.996Z,62.96
2018-11-07T15:15:30.498Z,62.77
2018-11-07T15:17:59.902Z,63.55
2018-11-07T15:20:29.329Z,62.82
2018-11-07T15:22:59.072Z,62.70
2018-11-07T15:25:28.651Z,62.61
2018-11-07T15:27:58.287Z,63.19
2018-11-07T15:30:27.860Z,63.64
2018-11-07T15:32:57.340Z,63.73
2018-11-07T15:35:33.506Z,63.49
2018-11-07T15:38:03.352Z,64.19
2018-11-07T15:40:32.831Z,63.86
2018-11-07T15:43:02.306Z,64.42
2018-11-07T15:45:32.094Z,64.78
2018-11-07T15:48:02.458Z,64.52
2018-11-07T15:50:37.000Z,65.26
2018-11-07T15:53:06.769Z,65.37
2018-11-07T15:55:36.266Z,65.25
2018-11-07T15:58:07.616Z,65.50
2018-11-07T16:00:37.402Z,65.13
2018-11-07T16:03:06.880Z,65.60
2018-11-07T16:05:36.398Z,65.49
2018-11-07T16:08:06.801Z,65.53
2018-11-07T16:10:36.304Z,65.24
2018-11-07T16:13:10.124Z,65.72
2018-11-07T16:15:39.613Z,66.00
2018-11-07T16:18:09.250Z,65.97
2018-11-07T16:20:38.818Z,65.92
2018-11-07T16:23:09.407Z,65.57
2018-11-07T16:25:39.016Z,65.40
2018-11-07T16:28:08.683Z,65.47
2018-11-07T16:30:38.350Z,65.60
2018-11-07T16:33:07.904Z,65.10
2018-11-07T16:35:37.301Z,65.36
2018-11-07T16:38:07.232Z,64.84
2018-11-07T16:40:36.900Z,65.49
2018-11-07T16:43:06.727Z,65.11
2018-11-07T16:45:36.108Z,65.55
2018-11-07T16:48:06.520Z,65.36
2018-11-07T16:50:36.199Z,65.13
2018-11-07T16:53:12.950Z,65.02
2018-11-07T16:55:42.560Z,64.95
2018-11-07T16:58:12.078Z,64.87
2018-11-07T17:00:44.942Z,65.26
2018-11-07T17:03:14.447Z,65.24
2018-11-07T17:05:43.959Z,64.61
2018-11-07T17:08:13.609Z,64.67
2018-11-07T17:10:43.143Z,64.37
2018-11-07T17:13:12.563Z,64.17
2018-11-07T17:15:42.119Z,64.80
2018-11-07T17:18:11.600Z,64.53
2018-11-07T17:20:41.077Z,64.71
2018-11-07T17:23:10.492Z,64.09
2018-11-07T17:25:39.986Z,63.93
2018-11-07T17:28:09.449Z,64.11
2018-11-07T17:30:39.090Z,64.24
2018-11-07T17:33:08.522Z,64.17
2018-11-07T17:35:38.502Z,63.83
2018-11-07T17:38:07.975Z,63.97
2018-11-07T17:40:37.716Z,63.74
2018-11-07T17:43:07.796Z,63.75
2018-11-07T17:45:37.200Z,63.65
2018-11-07T17:48:06.729Z,63.16
2018-11-07T17:50:36.493Z,63.74
2018-11-07T17:53:06.860Z,63.38
2018-11-07T17:55:36.352Z,63.38
2018-11-07T17:58:06.579Z,63.01
2018-11-07T18:00:36.023Z,62.94
2018-11-07T18:03:06.347Z,63.26
2018-11-07T18:05:35.787Z,63.26
2018-11-07T18:08:06.466Z,63.65
2018-11-07T18:10:37.575Z,63.96
2018-11-07T18:13:07.166Z,64.06
2018-11-07T18:15:36.601Z,64.19
2018-11-07T18:18:06.576Z,64.31
2018-11-07T18:20:35.996Z,64.47
2018-11-07T18:23:06.728Z,64.98
2018-11-07T18:25:36.226Z,65.39
2018-11-07T18:28:06.413Z,65.46
2018-11-07T18:30:35.815Z,65.71
2018-11-07T18:33:06.585Z,65.10
2018-11-07T18:35:36.016Z,65.17
2018-11-07T18:38:06.175Z,66.01
2018-11-07T18:40:35.595Z,66.01
2018-11-07T18:43:06.528Z,65.78
2018-11-07T18:45:35.873Z,65.98
2018-11-07T18:48:06.495Z,65.97
2018-11-07T18:50:36.213Z,65.94
2018-11-07T18:53:06.696Z,66.10
2018-11-07T18:55:38.983Z,66.47
2018-11-07T18:58:08.497Z,66.68
2018-11-07T19:00:38.157Z,66.48
2018-11-07T19:03:07.938Z,66.04
2018-11-07T19:05:37.405Z,66.84
2018-11-07T19:08:07.669Z,66.55
2018-11-07T19:10:37.218Z,66.88
2018-11-07T19:13:06.990Z,66.96
2018-11-07T19:15:36.418Z,67.11
2018-11-07T19:18:06.785Z,66.63
2018-11-07T19:20:36.320Z,67.37
2018-11-07T19:23:06.685Z,67.31
2018-11-07T19:25:36.158Z,68.10
2018-11-07T19:28:06.471Z,67.98
2018-11-07T19:30:35.949Z,67.88
2018-11-07T19:33:07.142Z,68.30
2018-11-07T19:35:36.587Z,68.30
2018-11-07T19:38:06.984Z,68.57
2018-11-07T19:40:36.474Z,69.32
2018-11-07T19:43:06.577Z,69.37
2018-11-07T19:45:36.058Z,69.18
2018-11-07T19:48:06.275Z,69.63
2018-11-07T19:50:35.772Z,69.64
2018-11-07T19:53:06.379Z,69.69
2018-11-07T19:55:35.913Z,69.90
2018-11-07T19:58:06.827Z,70.53
2018-11-07T20:00:37.635Z,69.90
2018-11-07T20:03:07.039Z,70.52
2018-11-07T20:05:36.547Z,70.42
2018-11-07T20:08:06.143Z,70.12
2018-11-07T20:10:51.124Z,70.34
2018-11-07T20:13:20.581Z,70.25
2018-11-07T20:15:50.102Z,70.65
2018-11-07T20:18:19.594Z,71.22
2018-11-07T20:20:49.553Z,70.44
2018-11-07T20:23:19.080Z,71.00
2018-11-07T20:25:48.651Z,71.33
2018-11-07T20:28:18.229Z,70.89
2018-11-07T20:30:47.757Z,70.74
2018-11-07T20:33:17.220Z,71.06
2018-11-07T20:35:46.827Z,71.48
2018-11-07T20:38:16.257Z,71.16
2018-11-07T20:40:45.717Z,70.68
2018-11-07T20:43:15.427Z,71.02
2018-11-07T20:45:44.835Z,70.96
2018-11-07T20:48:20.296Z,71.41
2018-11-07T20:50:49.712Z,71.43
2018-11-07T20:53:19.195Z,71.04
2018-11-07T20:55:48.629Z,71.71
2018-11-07T20:58:18.119Z,71.74
2018-11-07T21:00:47.575Z,71.81
2018-11-07T21:03:17.063Z,71.67
2018-11-07T21:05:46.547Z,71.62
2018-11-07T21:08:16.020Z,71.26
2018-11-07T21:10:45.537Z,71.00
2018-11-07T21:13:16.117Z,71.40
2018-11-07T21:15:47.304Z,71.45
2018-11-07T21:18:16.838Z,71.49
2018-11-07T21:20:46.602Z,71.17
2018-11-07T21:23:16.439Z,71.25
2018-11-07T21:25:45.970Z,71.31
2018-11-07T21:28:15.422Z,70.67
2018-11-07T21:30:44.942Z,70.91
2018-11-07T21:33:14.424Z,70.36
2018-11-07T21:35:43.951Z,71.30
2018-11-07T21:38:13.350Z,70.97
2018-11-07T21:40:42.872Z,71.34
2018-11-07T21:43:12.354Z,71.40
2018-11-07T21:45:41.876Z,71.36
2018-11-07T21:48:11.275Z,71.36
2018-11-07T21:50:40.706Z,70.72
2018-11-07T21:53:10.135Z,71.39
2018-11-07T21:55:39.598Z,71.60
2018-11-07T21:58:09.014Z,71.26
2018-11-07T22:00:38.466Z,71.24
2018-11-07T22:03:07.915Z,71.45
2018-11-07T22:05:37.338Z,71.50
2018-11-07T22:08:06.955Z,71.55
2018-11-07T22:10:37.357Z,71.81
2018-11-07T22:13:07.053Z,71.49
2018-11-07T22:15:36.458Z,71.79
2018-11-07T22:18:07.014Z,71.94
2018-11-07T22:20:36.498Z,71.86
2018-11-07T22:23:06.376Z,71.86
2018-11-07T22:25:36.206Z,71.96
2018-11-07T22:28:07.357Z,71.82
2018-11-07T22:30:37.055Z,71.75
2018-11-07T22:33:07.310Z,71.48
2018-11-07T22:35:37.010Z,71.41
2018-11-07T22:38:06.709Z,71.86
2018-11-07T22:40:36.533Z,71.91
2018-11-07T22:43:06.730Z,72.12
2018-11-07T22:45:36.375Z,71.98
2018-11-07T22:48:09.113Z,72.01
2018-11-07T22:50:38.764Z,72.46
2018-11-07T22:53:08.455Z,71.75
2018-11-07T22:55:38.076Z,72.31
2018-11-07T22:58:07.769Z,71.92
2018-11-07T23:00:43.234Z,72.61
2018-11-07T23:03:12.909Z,71.95
2018-11-07T23:05:42.236Z,72.52
2018-11-07T23:08:11.642Z,72.62
2018-11-07T23:10:41.488Z,72.22
2018-11-07T23:13:10.962Z,72.59
2018-11-07T23:15:45.402Z,72.74
2018-11-07T23:18:15.187Z,72.95
2018-11-07T23:20:44.641Z,72.78
2018-11-07T23:23:14.225Z,73.02
2018-11-07T23:25:43.782Z,73.51
2018-11-07T23:28:13.118Z,73.18
2018-11-07T23:30:42.458Z,73.64
2018-11-07T23:33:11.791Z,73.69
2018-11-07T23:35:41.308Z,73.61
2018-11-07T23:38:10.691Z,73.53
2018-11-07T23:40:40.113Z,73.97
2018-11-07T23:43:09.442Z,74.34
2018-11-07T23:45:38.828Z,73.36
2018-11-07T23:48:08.129Z,73.80
2018-11-07T23:50:37.500Z,73.35
2018-11-07T23:53:07.069Z,73.61
2018-11-07T23:55:37.819Z,74.22
2018-11-07T23:58:07.153Z,74.26
